Latest Coastal Weather Observations for Wynyard

IDT60701

Issued at 3:03 am EST Tuesday 30 May 2017 (issued every 10 minutes, with the page automatically refreshed every 10 minutes)

About coastal observations | Map of coastal stations | Coastal observations for TAS | Marine services | Other Formats
Station Details ID: 091107 Name: WYNYARD AIRPORT Lat: -41.00 Lon: 145.73 Height: 12.0 m
Data from the previous 72 hours. | See also: Recent months at Wynyard
Date/Time
EST
Temp
°C
Wind Pressure Rain since
9am
mm
Weather Cloud Vis
km
Sea
Height
m
Swell
Dir  Spd
kts
Gust
kts
hPa Trend Height
m
Period
s
Dir
30/03:00am 12.4 NW 15 19 1009.8 - 6.0 Recent precip. Cloudy 17 - - - -
30/02:59am 12.4 NW 15 22 1009.9 - 6.2 - Partly cloudy 10 - - - -
30/02:54am 12.4 NW 15 22 1010.0 - 6.2 - Partly cloudy 10 - - - -
30/02:49am 12.3 NW 16 20 1010.1 - 6.2 - Partly cloudy 6 - - - -
30/02:42am 12.3 NW 12 20 1010.2 - 6.2 - Partly cloudy 5 - - - -
30/02:41am 12.3 NW 12 20 1010.3 - 6.2 - Partly cloudy 6 - - - -
30/02:30am 12.1 WNW 11 14 1010.4 - 5.6 - Partly cloudy 10 - - - -
30/02:29am 12.0 WNW 11 14 1010.4 - 5.6 - Partly cloudy 10 - - - -
30/02:09am 11.6 W 10 16 1010.7 - 5.4 - Partly cloudy 10 - - - -
30/02:00am 11.8 WNW 11 16 1010.8 - 5.4 - Partly cloudy 6 - - - -
30/01:55am 11.7 WNW 11 15 1010.9 - 5.4 - Partly cloudy 5 - - - -
30/01:52am 11.7 WNW 10 15 1010.9 - 5.2 - Partly cloudy 5 - - - -
30/01:30am 11.6 WNW 12 15 1011.2 - 4.6 - Partly cloudy 10 - - - -
30/01:28am 11.7 WNW 12 16 1011.2 - 4.6 - Partly cloudy 10 - - - -
30/01:21am 11.7 WNW 15 22 1011.2 - 4.6 - Partly cloudy 9 - - - -
30/01:05am 12.3 NW 18 26 1011.1 - 4.4 - Partly cloudy 5 - - - -
30/01:04am 12.3 NW 18 26 1011.2 - 4.4 - Partly cloudy 6 - - - -
30/01:00am 12.1 NW 17 26 1011.2 - 4.4 - Partly cloudy 8 - - - -
30/12:30am 11.9 NW 16 25 1012.0 - 3.4 - Partly cloudy 3 - - - -
30/12:11am 11.5 NW 12 26 1012.4 - 2.8 - Partly cloudy 4 - - - -
30/12:00am 10.2 WSW 5 12 1012.5 - 2.2 Rain Cloudy 2 - - - -
 
Date/Time
EST
Temp
°C
Wind Pressure Rain since
9am
mm
Weather Cloud Vis
km
Sea
Height
m
Swell
Dir  Spd
kts
Gust
kts
hPa Trend Height
m
Period
s
Dir
29/11:41pm 8.5 CALM 0 3 1012.9 - 0.4 - Partly cloudy 4 - - - -
29/11:30pm 8.3 CALM 0 0 1013.2 - 0.4 - Partly cloudy 8 - - - -
29/11:16pm 8.1 S 2 5 1013.3 - 0.4 - Partly cloudy 5 - - - -
29/11:00pm 7.7 WSW 1 4 1013.7 - 0.2 - Partly cloudy 6 - - - -
29/10:47pm 7.5 WSW 3 5 1013.8 - 0.2 - Partly cloudy 8 - - - -
29/10:30pm 7.5 W 2 5 1014.1 - 0.2 - Partly cloudy 3 - - - -
29/10:22pm 7.4 W 4 6 1014.3 - 0.2 - Partly cloudy 5 - - - -
29/10:00pm 7.1 SSW 1 5 1014.4 - 0.0 - Partly cloudy 10 - - - -
29/09:30pm 7.3 W 3 4 1014.9 - 0.0 - Partly cloudy 10 - - - -
29/09:00pm 6.9 W 4 6 1015.1 - 0.0 - Cloudy 10 - - - -
29/08:30pm 6.5 SW 3 6 1015.1 - 0.0 - Partly cloudy 10 - - - -
29/08:00pm 6.3 NW 3 3 1015.2 - 0.0 - Partly cloudy 10 - - - -
29/07:30pm 4.8 NW 2 5 1015.2 - 0.0 - Partly cloudy 10 - - - -
29/07:00pm 5.1 SW 5 5 1015.0 - 0.0 - - 10 - - - -
29/06:30pm 5.3 SSW 2 4 1014.9 - 0.0 - Partly cloudy 10 - - - -
29/06:00pm 6.0 CALM 0 0 1015.0 - 0.0 - Mostly clear 10 - - - -
29/05:30pm 6.3 CALM 0 0 1014.9 - 0.0 - Partly cloudy 10 - - - -
29/05:00pm 8.8 W 4 5 1014.8 - 0.0 - Partly cloudy 10 - - - -
29/04:30pm 10.3 WNW 7 8 1014.5 - 0.0 - - 10 - - - -
29/04:00pm 11.4 WNW 8 11 1014.4 - 0.0 - - 10 - - - -
29/03:30pm 12.1 W 11 14 1014.1 - 0.0 - Partly cloudy 10 - - - -
29/03:00pm 12.5 W 11 13 1014.0 - 0.0 - Mostly cloudy 10 - - - -
29/02:30pm 12.3 W 14 17 1013.9 - 0.0 - - 10 - - - -
29/02:00pm 12.5 WSW 11 15 1014.1 - 0.0 - Partly cloudy 10 - - - -
29/01:30pm 12.0 W 12 19 1014.1 - 0.0 - Partly cloudy 10 - - - -
29/01:00pm 12.9 W 12 18 1014.0 - 0.0 - - 10 - - - -
29/12:30pm 12.1 W 13 16 1014.1 - 0.0 - - 10 - - - -
29/12:00pm 11.1 WSW 14 19 1014.4 - 0.0 - Cloudy 10 - - - -
29/11:30am 11.6 WSW 11 17 1014.5 - 0.0 - - 10 - - - -
29/11:00am 10.5 W 8 11 1014.5 - 0.0 - - 10 - - - -
29/10:30am 10.1 W 7 11 1014.7 - 0.0 - - 10 - - - -
29/10:00am 8.6 WNW 4 5 1014.4 - 0.0 - - 10 - - - -
29/09:30am 8.3 WNW 4 5 1014.3 - 0.0 - - 10 - - - -
29/09:00am 7.2 WSW 3 4 1014.0 - 0.8 - Mostly clear 10 - - - -
29/08:30am 5.6 WSW 5 6 1013.7 - 0.8 - - 10 - - - -
29/08:00am 2.7 W 6 8 1013.3 - 0.8 - - 10 - - - -
29/07:30am 2.3 WNW 7 8 1012.9 - 0.8 - - 10 - - - -
29/07:00am 3.7 W 7 8 1012.4 - 0.8 - - 10 - - - -
29/06:30am 3.1 W 7 8 1012.0 - 0.8 - - 10 - - - -
29/06:00am 3.4 WSW 7 9 1011.7 - 0.8 - - 10 - - - -
29/05:30am 1.6 SW 3 4 1011.4 - 0.8 - - 10 - - - -
29/05:00am 1.9 WSW 3 4 1011.1 - 0.8 - - 10 - - - -
29/04:30am 2.1 WNW 5 7 1010.7 - 0.8 - - 10 - - - -
29/04:00am 3.7 NW 5 5 1010.5 - 0.8 - - 10 - - - -
29/03:30am 2.6 W 8 9 1010.4 - 0.8 - - 10 - - - -
29/03:00am 2.9 W 8 8 1010.2 - 0.8 - - 10 - - - -
29/02:30am 3.4 W 8 9 1009.9 - 0.8 - - 10 - - - -
29/02:00am 3.3 W 6 8 1009.7 - 0.8 - - 10 - - - -
29/01:30am 4.2 WSW 8 9 1009.3 - 0.8 - - 10 - - - -
29/01:00am 4.5 W 10 12 1009.2 - 0.8 - - 10 - - - -
29/12:30am 3.6 W 7 10 1009.0 - 0.8 - - 10 - - - -
29/12:00am 3.1 W 7 7 1008.7 - 0.8 - - 10 - - - -
 
Date/Time
EST
Temp
°C
Wind Pressure Rain since
9am
mm
Weather Cloud Vis
km
Sea
Height
m
Swell
Dir  Spd
kts
Gust
kts
hPa Trend Height
m
Period
s
Dir
28/11:30pm 4.7 WNW 8 10 1008.6 - 0.8 - - 10 - - - -
28/11:00pm 3.6 W 7 9 1008.4 - 0.8 - - 10 - - - -
28/10:30pm 3.5 WNW 7 8 1007.9 - 0.8 - - 10 - - - -
28/10:00pm 3.5 W 6 6 1007.8 - 0.8 - - 10 - - - -
28/09:30pm 5.4 WNW 7 9 1007.3 - 0.8 - - 10 - - - -
28/09:00pm 6.3 WNW 9 11 1006.9 - 0.8 - - 10 - - - -
28/08:30pm 6.4 W 8 10 1006.6 - 0.8 - - 10 - - - -
28/08:00pm 6.4 W 8 10 1006.1 - 0.8 - - 10 - - - -
28/07:30pm 6.8 W 9 10 1005.8 - 0.8 - Partly cloudy 10 - - - -
28/07:00pm 7.3 W 9 11 1005.3 - 0.8 - Partly cloudy 10 - - - -
28/06:30pm 7.5 WSW 9 10 1005.0 - 0.8 - - 10 - - - -
28/06:00pm 8.1 W 11 13 1004.7 - 0.8 - - 10 - - - -
28/05:30pm 7.6 WSW 7 8 1004.4 - 0.8 - - 10 - - - -
28/05:00pm 8.6 WSW 7 9 1003.7 - 0.8 - - 10 - - - -
28/04:30pm 10.2 WSW 8 11 1003.4 - 0.8 - - 10 - - - -
28/04:00pm 10.6 SW 9 11 1002.8 - 0.8 - Partly cloudy 10 - - - -
28/03:30pm 12.4 SW 10 15 1002.5 - 0.4 - Partly cloudy 10 - - - -
28/03:00pm 12.6 W 12 16 1002.2 - 0.4 - Mostly clear 10 - - - -
28/02:30pm 12.6 W 12 16 1001.8 - 0.4 - Partly cloudy 10 - - - -
28/02:00pm 12.0 WSW 15 21 1001.7 - 0.4 - Partly cloudy 10 - - - -
28/01:59pm 12.3 WSW 15 21 1001.7 - 0.4 - Partly cloudy 10 - - - -
28/01:30pm 11.8 WSW 9 10 1001.5 - 0.4 - Partly cloudy 10 - - - -
28/01:11pm 11.2 WSW 9 11 1001.5 - 0.4 - Partly cloudy 10 - - - -
28/01:00pm 10.9 WSW 13 25 1001.7 - 0.4 - Partly cloudy 5 - - - -
28/12:56pm 10.8 WSW 15 25 1001.8 - 0.4 - Partly cloudy 5 - - - -
28/12:54pm 10.7 WSW 16 25 1001.9 - 0.4 - Partly cloudy 5 - - - -
28/12:51pm 12.1 WSW 15 25 1001.8 - 0.0 - Partly cloudy 10 - - - -
28/12:30pm 12.4 W 11 13 1001.6 - 0.0 - - 10 - - - -
28/12:00pm 12.2 W 11 14 1001.8 - 0.0 - Partly cloudy 10 - - - -
28/11:30am 12.1 W 9 14 1001.9 - 0.0 - Partly cloudy 10 - - - -
28/11:00am 12.4 W 12 16 1002.0 - 0.0 - Partly cloudy 10 - - - -
28/10:30am 12.3 W 9 13 1002.1 - 0.0 - - 10 - - - -
28/10:00am 12.0 WSW 8 11 1002.2 - 0.0 - Partly cloudy 10 - - - -
28/09:30am 11.0 W 5 7 1002.3 - 0.0 - Partly cloudy 10 - - - -
28/09:00am 9.4 WNW 5 6 1002.0 - 15.0 - Mostly cloudy 10 - - - -
28/08:30am 8.9 WNW 4 5 1002.0 - 15.0 - Partly cloudy 10 - - - -
28/08:00am 9.2 NW 4 6 1002.0 - 15.0 - Partly cloudy 10 - - - -
28/07:30am 8.9 WNW 5 6 1001.8 - 15.0 - Partly cloudy 10 - - - -
28/07:00am 9.0 W 4 5 1001.6 - 15.0 - Partly cloudy 10 - - - -
28/06:30am 8.7 W 5 5 1001.3 - 15.0 - Partly cloudy 10 - - - -
28/06:00am 9.4 W 3 4 1001.2 - 15.0 - Cloudy 10 - - - -
28/05:30am 10.0 WNW 4 5 1001.1 - 15.0 - Partly cloudy 10 - - - -
28/05:00am 10.0 WNW 5 6 1001.2 - 15.0 - Partly cloudy 10 - - - -
28/04:30am 10.1 SW 5 7 1001.0 - 14.6 - Partly cloudy 10 - - - -
28/04:17am 10.1 WSW 7 8 1001.2 - 14.4 - Partly cloudy 7 - - - -
28/04:00am 10.3 WSW 10 13 1001.5 - 13.4 - Partly cloudy 3 - - - -
28/03:43am 9.9 SW 6 8 1001.5 - 11.0 - Partly cloudy 5 - - - -
28/03:30am 9.7 SW 4 5 1001.6 - 10.2 - Partly cloudy 10 - - - -
28/03:00am 9.8 CALM 0 0 1002.0 - 10.2 - Cloudy 10 - - - -
28/02:30am 10.0 CALM 0 0 1002.1 - 10.2 - Partly cloudy 10 - - - -
28/02:02am 10.2 W 6 8 1002.6 - 10.2 - Partly cloudy 10 - - - -
28/02:01am 10.2 W 7 10 1002.7 - 10.2 - Partly cloudy 10 - - - -
28/02:00am 10.2 W 7 10 1002.7 - 10.2 - Partly cloudy 10 - - - -
28/01:38am 11.5 W 10 15 1003.1 - 8.6 - Partly cloudy 5 - - - -
28/01:30am 12.4 NW 9 15 1003.1 - 7.8 - Partly cloudy 8 - - - -
28/01:26am 12.2 NW 7 12 1003.1 - 7.8 - Partly cloudy 9 - - - -
28/01:02am 11.0 WNW 2 4 1003.5 - 6.8 - Partly cloudy 3 - - - -
28/01:00am 10.9 WNW 2 4 1003.6 - 6.4 - Partly cloudy 4 - - - -
28/12:53am 10.8 WNW 3 5 1003.8 - 6.0 - Partly cloudy 5 - - - -
28/12:30am 10.7 W 3 4 1004.0 - 5.2 - Partly cloudy 9 - - - -
28/12:00am 10.9 W 5 7 1004.9 - 4.4 Rain Cloudy 8 - - - -
 
Date/Time
EST
Temp
°C
Wind Pressure Rain since
9am
mm
Weather Cloud Vis
km
Sea
Height
m
Swell
Dir  Spd
kts
Gust
kts
hPa Trend Height
m
Period
s
Dir
27/11:30pm 10.9 W 10 13 1005.0 - 4.0 - Partly cloudy 10 - - - -
27/11:00pm 11.6 W 14 21 1005.0 - 3.2 - Partly cloudy 10 - - - -
27/10:59pm 11.6 W 15 25 1005.1 - 3.2 - Partly cloudy 10 - - - -
27/10:42pm 13.2 NNW 22 45 1004.7 - 3.0 - Partly cloudy 10 - - - -
27/10:40pm 14.1 NNW 21 45 1004.7 - 3.0 - Partly cloudy 10 - - - -
27/10:39pm 14.7 N 19 45 1004.2 - 3.0 - Partly cloudy 10 - - - -
27/10:30pm 15.5 N 17 28 1004.5 - 3.0 - Partly cloudy 10 - - - -
27/10:00pm 15.1 N 17 28 1004.9 - 3.0 - Partly cloudy 10 - - - -
27/09:30pm 14.3 N 16 26 1005.4 - 3.0 - Partly cloudy 7 - - - -
27/09:05pm 14.4 N 15 25 1005.9 - 2.4 - Partly cloudy 8 - - - -
27/09:00pm 14.5 NNW 12 20 1005.9 - 2.2 Rain Cloudy 8 - - - -
27/08:44pm 14.4 NNW 14 20 1006.1 - 0.8 - Partly cloudy 5 - - - -
27/08:30pm 14.6 NNW 20 31 1006.5 - 0.2 - Partly cloudy 9 - - - -
27/08:15pm 15.8 NNW 17 27 1006.3 - 0.0 - Partly cloudy 10 - - - -
27/08:00pm 15.7 NNW 15 22 1006.5 - 0.0 - Partly cloudy 10 - - - -
27/07:30pm 15.8 N 16 27 1006.8 - 0.0 - Partly cloudy 10 - - - -
27/07:27pm 16.0 N 15 27 1006.8 - 0.0 - Partly cloudy 10 - - - -
27/07:00pm 15.8 N 16 23 1007.1 - 0.0 - Partly cloudy 10 - - - -
27/06:30pm 15.5 NNW 13 21 1007.5 - 0.0 - Cloudy 10 - - - -
27/06:00pm 15.7 NNW 14 23 1007.6 - 0.0 - Cloudy 10 - - - -
27/05:30pm 15.6 NNW 15 21 1007.8 - 0.0 - Partly cloudy 10 - - - -
27/05:00pm 15.5 NNW 13 18 1008.1 - 0.0 - Cloudy 10 - - - -
27/04:30pm 15.4 NNW 11 16 1008.5 - 0.0 - Cloudy 10 - - - -
27/04:00pm 15.5 NNW 14 19 1008.6 - 0.0 - Partly cloudy 10 - - - -
27/03:30pm 15.5 NNW 13 20 1008.7 - 0.0 - Cloudy 10 - - - -
27/03:00pm 15.6 NNW 13 20 1008.9 - 0.0 - Mostly cloudy 10 - - - -
27/02:30pm 15.6 NNW 14 21 1009.1 - 0.0 - Cloudy 10 - - - -
27/02:00pm 15.7 NNW 12 19 1009.5 - 0.0 - Cloudy 10 - - - -
27/01:30pm 15.7 NW 11 18 1010.0 - 0.0 - Cloudy 10 - - - -
27/01:00pm 15.7 NNW 12 17 1010.7 - 0.0 - Cloudy 10 - - - -
27/12:30pm 15.8 NNW 11 15 1011.2 - 0.0 - Partly cloudy 10 - - - -
27/12:00pm 15.9 NNW 11 16 1011.8 - 0.0 - Cloudy 10 - - - -
27/11:30am 16.0 NNW 11 16 1012.3 - 0.0 - Partly cloudy 10 - - - -
27/11:00am 15.8 NW 11 17 1012.9 - 0.0 - Partly cloudy 10 - - - -
27/10:30am 15.8 NNW 12 17 1013.3 - 0.0 - Partly cloudy 10 - - - -
27/10:27am 15.8 NNW 12 17 1013.3 - 0.0 - Partly cloudy 10 - - - -
27/10:00am 15.6 NNW 10 16 1013.5 - 0.0 - Partly cloudy 10 - - - -
27/09:30am 15.3 NNW 11 17 1013.7 - 0.0 - Partly cloudy 10 - - - -
27/09:00am 15.1 N 9 13 1013.8 - 0.4 - Cloudy 10 - - - -
27/08:30am 14.8 N 9 16 1014.2 - 0.4 - Partly cloudy 10 - - - -
27/08:13am 14.7 N 10 18 1014.3 - 0.4 - Partly cloudy 10 - - - -
27/08:00am 14.6 N 8 11 1014.2 - 0.4 - Partly cloudy 10 - - - -
27/07:30am 12.2 E 2 8 1014.5 - 0.4 - Partly cloudy 10 - - - -
27/07:00am 10.7 SW 1 4 1014.8 - 0.4 - Partly cloudy 10 - - - -
27/06:30am 10.9 SSW 1 3 1014.9 - 0.4 - Partly cloudy 10 - - - -
27/06:00am 11.9 WNW 4 7 1015.0 - 0.4 - Mostly cloudy 10 - - - -
27/05:30am 13.2 NNW 8 11 1015.0 - 0.4 - Partly cloudy 10 - - - -
27/05:00am 13.7 NNW 8 12 1015.0 - 0.4 - Partly cloudy 10 - - - -
27/04:30am 13.4 NNW 6 13 1015.3 - 0.4 - Partly cloudy 10 - - - -
27/04:00am 13.7 N 7 10 1015.7 - 0.0 - Partly cloudy 10 - - - -
27/03:30am 13.5 N 7 10 1016.1 - 0.0 - Partly cloudy 10 - - - -

Other Formats:

Comma delimited format used in spreadsheet applications
http://www.bom.gov.au/fwo/IDT60701/IDT60701.95957.axf

JavaScript Object Notation format (JSON) in row-major order
http://www.bom.gov.au/fwo/IDT60701/IDT60701.95957.json